createdAt,value
2023-04-28T00:01:12.131Z,44.76
2023-04-28T00:03:38.936Z,44.89
2023-04-28T00:06:05.954Z,44.74
2023-04-28T00:08:32.758Z,44.75
2023-04-28T00:11:00.253Z,44.86
2023-04-28T00:13:26.985Z,44.79
2023-04-28T00:15:53.925Z,45.04
2023-04-28T00:18:21.122Z,45.05
2023-04-28T00:20:47.817Z,45.03
2023-04-28T00:23:14.660Z,44.92
2023-04-28T00:25:41.041Z,44.95
2023-04-28T00:28:07.531Z,44.98
2023-04-28T00:30:33.862Z,45.01
2023-04-28T00:33:00.445Z,44.94
2023-04-28T00:35:26.908Z,45.16
2023-04-28T00:37:53.349Z,45.06
2023-04-28T00:40:19.728Z,45.13
2023-04-28T00:42:46.211Z,45.17
2023-04-28T00:45:12.597Z,45.32
2023-04-28T00:47:39.186Z,45.47
2023-04-28T00:50:06.435Z,45.25
2023-04-28T00:52:32.881Z,45.41
2023-04-28T00:54:59.519Z,45.53
2023-04-28T00:57:27.117Z,45.44
2023-04-28T00:59:53.948Z,45.54
2023-04-28T01:02:20.614Z,45.71
2023-04-28T01:04:48.151Z,45.75
2023-04-28T01:07:14.591Z,45.62
2023-04-28T01:09:40.964Z,45.54
2023-04-28T01:12:08.119Z,45.70
2023-04-28T01:14:34.807Z,45.80
2023-04-28T01:17:01.823Z,45.78
2023-04-28T01:19:29.644Z,45.89
2023-04-28T01:21:56.145Z,46.03
2023-04-28T01:24:22.809Z,46.12
2023-04-28T01:26:49.237Z,46.08
2023-04-28T01:29:15.718Z,46.07
2023-04-28T01:31:42.257Z,46.13
2023-04-28T01:34:08.678Z,46.42
2023-04-28T01:36:37.384Z,46.07
2023-04-28T01:39:04.726Z,46.42
2023-04-28T01:41:31.350Z,46.37
2023-04-28T01:43:57.753Z,46.23
2023-04-28T01:46:24.225Z,46.48
2023-04-28T01:51:27.330Z,46.47
2023-04-28T01:53:53.722Z,46.61
2023-04-28T01:56:20.054Z,46.53
2023-04-28T01:58:46.486Z,46.58
2023-04-28T02:01:13.098Z,46.64
2023-04-28T02:03:39.682Z,46.75
2023-04-28T02:06:06.270Z,46.71
2023-04-28T02:08:32.655Z,46.52
2023-04-28T02:10:58.985Z,46.43
2023-04-28T02:13:25.354Z,46.89
2023-04-28T02:15:51.719Z,46.76
2023-04-28T02:18:18.110Z,46.74
2023-04-28T02:20:44.440Z,46.79
2023-04-28T02:23:10.782Z,46.84
2023-04-28T02:25:37.160Z,46.67
2023-04-28T02:28:03.973Z,46.65
2023-04-28T02:30:30.359Z,46.90
2023-04-28T02:32:56.761Z,46.66
2023-04-28T02:35:23.197Z,46.58
2023-04-28T02:37:49.587Z,46.80
2023-04-28T02:40:16.076Z,46.80
2023-04-28T02:42:42.618Z,47.04
2023-04-28T02:45:09.371Z,46.93
2023-04-28T02:47:35.821Z,47.03
2023-04-28T02:50:02.454Z,46.67
2023-04-28T02:52:28.812Z,47.20
2023-04-28T02:54:57.374Z,46.89
2023-04-28T02:57:24.320Z,47.01
2023-04-28T02:59:50.876Z,46.94
2023-04-28T03:02:17.357Z,47.05
2023-04-28T03:04:43.862Z,47.01
2023-04-28T03:07:10.335Z,47.09
2023-04-28T03:09:36.651Z,47.10
2023-04-28T03:12:03.462Z,46.95
2023-04-28T03:14:29.796Z,47.18
2023-04-28T03:16:57.725Z,47.00
2023-04-28T03:19:24.260Z,47.21
2023-04-28T03:21:50.794Z,46.98
2023-04-28T03:24:17.361Z,47.02
2023-04-28T03:26:44.076Z,46.98
2023-04-28T03:29:10.474Z,46.97
2023-04-28T03:31:36.891Z,47.00
2023-04-28T03:34:04.323Z,47.19
2023-04-28T03:36:30.678Z,47.07
2023-04-28T03:38:56.990Z,47.16
2023-04-28T03:41:23.321Z,47.17
2023-04-28T03:43:49.657Z,46.90
2023-04-28T03:46:16.061Z,47.03
2023-04-28T03:48:42.422Z,47.24
2023-04-28T03:51:08.830Z,47.12
2023-04-28T03:53:35.279Z,47.16
2023-04-28T03:56:01.754Z,47.15
2023-04-28T03:58:28.662Z,47.22
2023-04-28T04:00:54.990Z,47.23
2023-04-28T04:03:23.072Z,47.23
2023-04-28T04:05:49.770Z,47.25
2023-04-28T04:08:16.293Z,47.12
2023-04-28T04:10:42.716Z,47.21
2023-04-28T04:13:09.125Z,47.40
2023-04-28T04:15:35.744Z,47.40
2023-04-28T04:18:02.443Z,47.42
2023-04-28T04:20:28.866Z,47.64
2023-04-28T04:22:55.448Z,47.60
2023-04-28T04:25:23.353Z,47.76
2023-04-28T04:27:49.906Z,47.69
2023-04-28T04:30:16.271Z,47.79
2023-04-28T04:32:42.807Z,47.81
2023-04-28T04:35:09.595Z,47.86
2023-04-28T04:37:36.061Z,47.74
2023-04-28T04:40:03.415Z,47.57
2023-04-28T04:42:29.863Z,47.75
2023-04-28T04:44:56.212Z,47.92
2023-04-28T04:47:22.613Z,47.92
2023-04-28T04:49:52.409Z,47.90
2023-04-28T04:52:18.910Z,47.93
2023-04-28T04:54:46.225Z,47.69
2023-04-28T04:57:12.995Z,47.79
2023-04-28T04:59:39.376Z,47.85
2023-04-28T05:02:06.045Z,47.85
2023-04-28T05:04:32.600Z,47.93
2023-04-28T05:06:59.092Z,47.95
2023-04-28T05:09:25.520Z,48.01
2023-04-28T05:11:51.892Z,48.08
2023-04-28T05:14:18.498Z,48.07
2023-04-28T05:16:45.308Z,47.97
2023-04-28T05:19:11.721Z,48.08
2023-04-28T05:21:38.077Z,48.15
2023-04-28T05:24:04.794Z,48.28
2023-04-28T05:26:31.262Z,48.32
2023-04-28T05:28:57.618Z,48.29
2023-04-28T05:31:24.073Z,48.39
2023-04-28T05:33:50.422Z,48.07
2023-04-28T05:36:17.057Z,48.21
2023-04-28T05:38:44.023Z,48.35
2023-04-28T05:41:10.410Z,48.57
2023-04-28T05:43:37.343Z,48.37
2023-04-28T05:46:05.090Z,48.32
2023-04-28T05:48:32.689Z,48.18
2023-04-28T05:50:59.050Z,48.35
2023-04-28T05:53:25.667Z,48.37
2023-04-28T05:55:52.433Z,48.37
2023-04-28T05:58:18.832Z,48.38
2023-04-28T06:00:45.227Z,48.54
2023-04-28T06:03:14.414Z,48.59
2023-04-28T06:05:41.411Z,48.81
2023-04-28T06:08:08.325Z,48.66
2023-04-28T06:10:34.745Z,48.51
2023-04-28T06:13:02.412Z,48.46
2023-04-28T06:15:28.804Z,48.42
2023-04-28T06:17:55.572Z,48.44
2023-04-28T06:20:22.163Z,48.46
2023-04-28T06:22:48.547Z,48.38
2023-04-28T06:25:14.962Z,48.56
2023-04-28T06:27:41.429Z,48.70
2023-04-28T06:30:08.404Z,48.89
2023-04-28T06:32:34.865Z,48.82
2023-04-28T06:35:01.320Z,48.58
2023-04-28T06:37:27.679Z,48.76
2023-04-28T06:39:54.107Z,48.71
2023-04-28T06:42:20.797Z,48.88
2023-04-28T06:44:47.220Z,48.83
2023-04-28T06:47:13.642Z,48.84
2023-04-28T06:49:40.058Z,49.31
2023-04-28T06:52:07.822Z,49.29
2023-04-28T06:54:34.348Z,49.56
2023-04-28T06:57:00.929Z,49.64
2023-04-28T06:59:27.268Z,49.81
2023-04-28T07:01:53.671Z,49.95
2023-04-28T07:04:20.411Z,49.81
2023-04-28T07:06:47.140Z,49.91
2023-04-28T07:09:13.713Z,49.63
2023-04-28T07:11:40.066Z,49.80
2023-04-28T07:14:08.165Z,49.86
2023-04-28T07:16:34.568Z,49.94
2023-04-28T07:19:00.942Z,50.17
2023-04-28T07:21:28.108Z,50.25
2023-04-28T07:23:57.425Z,50.31
2023-04-28T07:26:24.066Z,50.47
2023-04-28T07:28:50.406Z,50.47
2023-04-28T07:31:16.885Z,50.56
2023-04-28T07:33:43.308Z,50.25
2023-04-28T07:36:09.867Z,50.22
2023-04-28T07:38:36.598Z,50.24
2023-04-28T07:41:04.296Z,50.03
2023-04-28T07:43:31.616Z,50.11
2023-04-28T07:45:58.121Z,50.01
2023-04-28T07:50:55.784Z,49.87
2023-04-28T07:53:22.276Z,49.82
2023-04-28T07:55:48.780Z,49.70
2023-04-28T07:58:15.276Z,49.92
2023-04-28T08:00:41.728Z,50.08
2023-04-28T08:03:08.449Z,50.17
2023-04-28T08:05:35.181Z,50.65
2023-04-28T08:08:01.647Z,50.70
2023-04-28T08:10:28.881Z,50.91
2023-04-28T08:12:55.369Z,50.76
2023-04-28T08:15:22.039Z,50.90
2023-04-28T08:17:48.508Z,51.29
2023-04-28T08:20:15.613Z,51.35
2023-04-28T08:22:42.219Z,51.55
2023-04-28T08:25:09.067Z,51.52
2023-04-28T08:27:38.089Z,51.50
2023-04-28T08:30:05.301Z,51.63
2023-04-28T08:32:31.815Z,51.55
2023-04-28T08:34:58.503Z,51.71
2023-04-28T08:37:24.921Z,52.07
2023-04-28T08:39:52.744Z,52.17
2023-04-28T08:42:20.287Z,52.23
2023-04-28T08:44:47.758Z,52.61
2023-04-28T08:47:15.048Z,52.70
2023-04-28T08:49:42.071Z,52.90
2023-04-28T08:52:13.088Z,53.56
2023-04-28T08:54:41.538Z,53.50
2023-04-28T08:57:11.327Z,53.55
2023-04-28T08:59:40.116Z,53.50
2023-04-28T09:02:08.343Z,53.46
2023-04-28T09:04:35.526Z,53.40
2023-04-28T09:07:02.635Z,53.30
2023-04-28T09:09:33.290Z,53.59
2023-04-28T09:12:03.952Z,53.87
2023-04-28T09:14:33.088Z,54.24
2023-04-28T09:16:59.820Z,54.20
2023-04-28T09:19:37.015Z,54.48
2023-04-28T09:22:17.517Z,54.08
2023-04-28T09:24:53.019Z,53.92
2023-04-28T09:27:30.645Z,54.52
2023-04-28T09:29:57.141Z,54.45
2023-04-28T09:32:24.442Z,54.97
2023-04-28T09:34:53.895Z,55.50
2023-04-28T09:37:22.570Z,55.36
2023-04-28T09:39:54.772Z,55.13
2023-04-28T09:42:37.799Z,55.27
2023-04-28T09:45:11.819Z,55.60
2023-04-28T09:47:41.031Z,55.34
2023-04-28T09:50:12.457Z,55.38
2023-04-28T09:52:39.042Z,54.93
2023-04-28T09:55:08.599Z,54.82
2023-04-28T09:57:36.547Z,55.01
2023-04-28T10:00:06.616Z,54.84
2023-04-28T10:05:09.933Z,55.84
2023-04-28T10:07:37.506Z,55.99
2023-04-28T10:10:05.452Z,55.79
2023-04-28T10:12:32.854Z,54.88
2023-04-28T10:15:00.492Z,54.67
2023-04-28T10:17:29.376Z,54.05
2023-04-28T10:19:57.421Z,53.44
2023-04-28T10:22:53.554Z,52.80
2023-04-28T10:25:34.152Z,53.24
2023-04-28T10:28:04.869Z,53.58
2023-04-28T10:30:31.463Z,53.76
2023-04-28T10:33:26.202Z,52.87
2023-04-28T10:35:53.008Z,53.23
2023-04-28T10:38:24.103Z,52.68
2023-04-28T10:40:54.331Z,51.79
2023-04-28T10:43:31.001Z,51.56
2023-04-28T10:46:00.340Z,51.74
2023-04-28T10:48:26.758Z,51.64
2023-04-28T10:51:06.109Z,51.11
2023-04-28T10:53:58.793Z,50.91
2023-04-28T10:56:27.103Z,51.69
2023-04-28T10:58:58.349Z,51.47
2023-04-28T11:01:25.657Z,51.80
2023-04-28T11:04:04.135Z,51.50
2023-04-28T11:06:41.988Z,53.15
2023-04-28T11:09:14.644Z,53.57
2023-04-28T11:11:41.094Z,56.17
2023-04-28T11:14:17.204Z,55.09
2023-04-28T11:17:13.163Z,52.88
2023-04-28T11:19:42.065Z,51.41
2023-04-28T11:22:14.473Z,49.62
2023-04-28T11:24:41.349Z,49.02
2023-04-28T11:27:08.540Z,48.44
2023-04-28T11:29:40.460Z,46.81
2023-04-28T11:32:09.463Z,47.39
2023-04-28T11:34:37.008Z,47.51
2023-04-28T11:37:04.011Z,47.82
2023-04-28T11:39:32.416Z,47.18
2023-04-28T11:42:02.357Z,46.70
2023-04-28T11:44:31.718Z,47.08
2023-04-28T11:47:01.023Z,46.58
2023-04-28T11:49:33.677Z,45.66
2023-04-28T11:52:07.362Z,45.22
2023-04-28T11:54:34.284Z,45.75
2023-04-28T11:57:03.917Z,46.66
2023-04-28T11:59:35.391Z,46.80
2023-04-28T12:02:04.193Z,46.93
2023-04-28T12:04:31.811Z,47.19
2023-04-28T12:06:59.732Z,46.84
2023-04-28T12:09:26.460Z,46.39
2023-04-28T12:12:02.778Z,45.13
2023-04-28T12:14:30.296Z,45.69
2023-04-28T12:16:58.461Z,46.10
2023-04-28T12:19:24.953Z,45.74
2023-04-28T12:22:01.820Z,45.36
2023-04-28T12:24:28.971Z,45.78
2023-04-28T12:26:55.712Z,46.02
2023-04-28T12:29:42.052Z,46.25
2023-04-28T12:32:10.852Z,46.61
2023-04-28T12:34:39.709Z,47.04
2023-04-28T12:37:07.181Z,47.57
2023-04-28T12:42:06.980Z,47.71
2023-04-28T12:44:37.926Z,47.98
2023-04-28T12:47:07.280Z,47.96
2023-04-28T12:49:35.858Z,48.13
2023-04-28T12:52:03.693Z,48.03
2023-04-28T12:54:31.029Z,48.60
2023-04-28T12:56:57.789Z,48.61
2023-04-28T12:59:24.372Z,49.21
2023-04-28T13:01:51.224Z,49.08
2023-04-28T13:04:19.280Z,49.36
2023-04-28T13:06:46.377Z,50.14
2023-04-28T13:09:16.825Z,50.04
2023-04-28T13:11:43.662Z,50.35
2023-04-28T13:14:10.531Z,50.41
2023-04-28T13:16:37.566Z,50.63
2023-04-28T13:19:09.456Z,50.74
2023-04-28T13:21:39.194Z,50.98
2023-04-28T13:24:06.234Z,51.36
2023-04-28T13:26:33.039Z,51.80
2023-04-28T13:29:00.264Z,51.65
2023-04-28T13:31:27.363Z,51.85
2023-04-28T13:33:53.838Z,51.60
2023-04-28T13:36:20.381Z,52.07
2023-04-28T13:38:49.032Z,52.05
2023-04-28T13:41:16.670Z,52.17
2023-04-28T13:43:43.698Z,52.61
2023-04-28T13:46:11.053Z,53.01
2023-04-28T13:51:25.504Z,53.98
2023-04-28T13:53:51.952Z,54.04
2023-04-28T13:56:18.331Z,54.72
2023-04-28T13:58:44.933Z,55.26
2023-04-28T14:01:11.333Z,55.21
2023-04-28T14:03:37.856Z,56.23
2023-04-28T14:06:04.631Z,56.65
2023-04-28T14:08:31.207Z,56.76
2023-04-28T14:10:57.908Z,56.77
2023-04-28T14:13:27.307Z,57.40
2023-04-28T14:15:59.025Z,57.57
2023-04-28T14:18:26.364Z,58.00
2023-04-28T14:20:54.362Z,58.18
2023-04-28T14:23:22.037Z,58.51
2023-04-28T14:25:48.550Z,58.62
2023-04-28T14:28:14.932Z,58.69
2023-04-28T14:30:41.707Z,59.00
2023-04-28T14:33:08.264Z,59.41
2023-04-28T14:35:35.017Z,59.84
2023-04-28T14:38:03.673Z,61.07
2023-04-28T14:40:30.712Z,60.41
2023-04-28T14:42:57.691Z,60.41
2023-04-28T14:45:24.412Z,60.91
2023-04-28T14:47:50.831Z,61.03
2023-04-28T14:50:18.480Z,61.58
2023-04-28T14:52:44.862Z,61.84
2023-04-28T14:55:11.322Z,61.94
2023-04-28T14:57:37.984Z,62.01
2023-04-28T15:00:07.101Z,62.53
2023-04-28T15:02:34.244Z,62.84
2023-04-28T15:05:00.969Z,62.82
2023-04-28T15:07:31.858Z,62.71
2023-04-28T15:09:59.769Z,62.61
2023-04-28T15:12:27.010Z,62.45
2023-04-28T15:14:53.992Z,62.74
2023-04-28T15:17:21.194Z,62.53
2023-04-28T15:19:47.761Z,62.34
2023-04-28T15:22:14.311Z,62.46
2023-04-28T15:24:41.249Z,62.31
2023-04-28T15:27:07.844Z,62.40
2023-04-28T15:29:34.596Z,62.50
2023-04-28T15:32:01.013Z,62.49
2023-04-28T15:34:27.482Z,62.66
2023-04-28T15:36:54.149Z,62.85
2023-04-28T15:39:20.573Z,63.01
2023-04-28T15:41:47.664Z,62.76
2023-04-28T15:44:14.453Z,63.04
2023-04-28T15:46:41.108Z,63.30
2023-04-28T15:49:08.551Z,63.41
2023-04-28T15:51:34.929Z,63.20
2023-04-28T15:54:01.570Z,63.60
2023-04-28T15:56:28.857Z,63.92
2023-04-28T15:58:55.406Z,63.77
2023-04-28T16:01:22.451Z,63.87
2023-04-28T16:03:49.112Z,63.94
2023-04-28T16:06:15.616Z,64.19
2023-04-28T16:08:42.778Z,64.07
2023-04-28T16:11:17.414Z,64.43
2023-04-28T16:13:44.921Z,64.06
2023-04-28T16:16:15.087Z,65.44
2023-04-28T16:21:09.338Z,64.52
2023-04-28T16:23:35.898Z,64.50
2023-04-28T16:26:02.304Z,64.72
2023-04-28T16:28:28.797Z,64.69
2023-04-28T16:30:55.225Z,64.82
2023-04-28T16:33:21.642Z,65.05
2023-04-28T16:35:58.213Z,66.80
2023-04-28T16:38:24.571Z,65.45
2023-04-28T16:40:51.358Z,65.20
2023-04-28T16:43:18.151Z,65.51
2023-04-28T16:45:44.588Z,65.19
2023-04-28T16:48:11.113Z,65.37
2023-04-28T16:50:39.614Z,65.19
2023-04-28T16:53:07.811Z,65.43
2023-04-28T16:55:37.396Z,66.37
2023-04-28T16:58:04.054Z,66.17
2023-04-28T17:00:31.010Z,66.04
2023-04-28T17:02:57.631Z,66.35
2023-04-28T17:05:24.064Z,66.56
2023-04-28T17:07:50.648Z,66.49
2023-04-28T17:10:17.034Z,66.54
2023-04-28T17:12:45.288Z,66.71
2023-04-28T17:15:15.134Z,67.41
2023-04-28T17:17:41.510Z,66.86
2023-04-28T17:20:08.327Z,66.84
2023-04-28T17:22:35.349Z,66.96
2023-04-28T17:25:01.803Z,67.10
2023-04-28T17:27:28.152Z,67.11
2023-04-28T17:29:54.591Z,67.15
2023-04-28T17:32:21.498Z,67.04
2023-04-28T17:34:48.047Z,67.08
2023-04-28T17:37:14.510Z,67.16
2023-04-28T17:39:41.009Z,67.25
2023-04-28T17:42:07.377Z,67.19
2023-04-28T17:44:33.755Z,67.52
2023-04-28T17:47:01.069Z,67.38
2023-04-28T17:49:27.630Z,67.57
2023-04-28T17:51:54.001Z,67.43
2023-04-28T17:54:20.372Z,67.51
2023-04-28T17:56:46.832Z,67.59
2023-04-28T17:59:14.481Z,67.91
2023-04-28T18:01:40.855Z,68.17
2023-04-28T18:04:07.523Z,67.98
2023-04-28T18:06:34.055Z,68.02
2023-04-28T18:09:00.406Z,68.13
2023-04-28T18:11:27.974Z,68.15
2023-04-28T18:13:54.480Z,68.09
2023-04-28T18:16:21.013Z,68.27
2023-04-28T18:18:48.489Z,68.23
2023-04-28T18:21:14.930Z,68.41
2023-04-28T18:23:41.416Z,68.61
2023-04-28T18:26:08.532Z,68.63
2023-04-28T18:28:34.935Z,68.78
2023-04-28T18:31:05.607Z,69.36
2023-04-28T18:33:32.667Z,68.57
2023-04-28T18:36:04.978Z,69.46
2023-04-28T18:38:34.371Z,68.62
2023-04-28T18:41:02.096Z,68.87
2023-04-28T18:43:28.551Z,68.81
2023-04-28T18:45:55.020Z,68.73
2023-04-28T18:48:21.677Z,68.84
2023-04-28T18:50:48.581Z,68.77
2023-04-28T18:53:15.593Z,68.77
2023-04-28T18:55:41.955Z,69.17
2023-04-28T18:58:08.414Z,68.86
2023-04-28T19:00:37.030Z,68.99
2023-04-28T19:03:04.094Z,68.87
2023-04-28T19:05:30.770Z,68.99
2023-04-28T19:07:57.143Z,69.02
2023-04-28T19:10:23.541Z,69.22
2023-04-28T19:12:49.944Z,69.51
2023-04-28T19:15:17.053Z,69.27
2023-04-28T19:17:44.323Z,69.33
2023-04-28T19:20:11.246Z,69.35
2023-04-28T19:22:40.311Z,69.37
2023-04-28T19:25:07.235Z,69.56
2023-04-28T19:27:35.543Z,69.69
2023-04-28T19:30:03.593Z,69.58
2023-04-28T19:32:30.348Z,69.56
2023-04-28T19:34:56.991Z,69.39
2023-04-28T19:37:23.530Z,69.79
2023-04-28T19:39:51.043Z,69.94
2023-04-28T19:42:18.420Z,69.68
2023-04-28T19:44:47.143Z,70.09
2023-04-28T19:47:13.725Z,69.77
2023-04-28T19:52:31.140Z,69.70
2023-04-28T19:54:57.628Z,70.05
2023-04-28T19:57:24.201Z,69.98
2023-04-28T19:59:50.831Z,70.02
2023-04-28T20:02:17.762Z,70.24
2023-04-28T20:04:44.491Z,70.25
2023-04-28T20:07:11.444Z,70.23
2023-04-28T20:09:38.701Z,70.27
2023-04-28T20:12:07.718Z,70.21
2023-04-28T20:14:34.895Z,70.29
2023-04-28T20:17:03.606Z,70.17
2023-04-28T20:19:30.367Z,69.99
2023-04-28T20:21:56.805Z,69.90
2023-04-28T20:24:23.384Z,69.86
2023-04-28T20:26:50.607Z,69.79
2023-04-28T20:29:17.784Z,69.78
2023-04-28T20:31:44.213Z,69.82
2023-04-28T20:34:10.703Z,69.78
2023-04-28T20:36:37.527Z,69.61
2023-04-28T20:39:04.454Z,69.64
2023-04-28T20:41:31.131Z,69.55
2023-04-28T20:43:57.588Z,69.65
2023-04-28T20:46:24.147Z,69.72
2023-04-28T20:48:50.642Z,69.79
2023-04-28T20:51:17.399Z,69.73
2023-04-28T20:53:43.894Z,69.81
2023-04-28T20:56:10.355Z,69.61
2023-04-28T20:58:36.950Z,69.39
2023-04-28T21:01:03.567Z,69.58
2023-04-28T21:03:30.682Z,69.50
2023-04-28T21:05:57.232Z,69.47
2023-04-28T21:08:23.701Z,69.54
2023-04-28T21:10:50.275Z,69.53
2023-04-28T21:13:16.833Z,69.36
2023-04-28T21:15:43.432Z,69.41
2023-04-28T21:18:10.113Z,69.31
2023-04-28T21:20:36.678Z,69.01
2023-04-28T21:23:03.209Z,68.80
2023-04-28T21:25:29.861Z,68.56
2023-04-28T21:27:56.349Z,68.12
2023-04-28T21:30:22.906Z,68.05
2023-04-28T21:32:49.627Z,68.34
2023-04-28T21:35:16.416Z,68.10
2023-04-28T21:37:43.038Z,68.23
2023-04-28T21:40:09.992Z,68.04
2023-04-28T21:42:36.464Z,68.05
2023-04-28T21:45:03.344Z,68.19
2023-04-28T21:47:30.041Z,68.04
2023-04-28T21:49:56.612Z,68.03
2023-04-28T21:52:23.084Z,67.99
2023-04-28T21:54:49.620Z,68.13
2023-04-28T21:57:16.146Z,68.21
2023-04-28T21:59:42.624Z,68.04
2023-04-28T22:02:09.257Z,68.03
2023-04-28T22:04:36.135Z,68.15
2023-04-28T22:07:03.773Z,67.94
2023-04-28T22:09:31.116Z,68.21
2023-04-28T22:11:57.588Z,67.91
2023-04-28T22:14:39.664Z,68.06
2023-04-28T22:17:07.820Z,67.87
2023-04-28T22:19:34.284Z,67.75
2023-04-28T22:22:00.814Z,67.68
2023-04-28T22:24:27.855Z,67.89
2023-04-28T22:26:54.928Z,67.83
2023-04-28T22:29:21.715Z,67.99
2023-04-28T22:31:48.196Z,68.02
2023-04-28T22:34:14.782Z,67.82
2023-04-28T22:36:41.545Z,67.74
2023-04-28T22:39:08.401Z,67.72
2023-04-28T22:41:34.863Z,67.70
2023-04-28T22:44:01.338Z,67.82
2023-04-28T22:46:28.712Z,67.99
2023-04-28T22:48:55.553Z,67.99
2023-04-28T22:51:22.157Z,68.13
2023-04-28T22:53:48.798Z,68.23
2023-04-28T22:56:17.174Z,68.42
2023-04-28T22:58:45.599Z,68.46
2023-04-28T23:01:15.135Z,68.52
2023-04-28T23:03:41.850Z,68.38
2023-04-28T23:06:08.492Z,68.61
2023-04-28T23:08:35.521Z,68.43
2023-04-28T23:11:06.735Z,69.07
2023-04-28T23:13:33.357Z,68.28
2023-04-28T23:16:00.491Z,68.27
2023-04-28T23:18:34.417Z,68.63
2023-04-28T23:21:00.833Z,68.54
2023-04-28T23:23:27.422Z,68.55
2023-04-28T23:25:55.483Z,68.41
2023-04-28T23:28:21.914Z,68.39
2023-04-28T23:30:48.347Z,68.43
2023-04-28T23:33:15.030Z,68.52
2023-04-28T23:35:41.985Z,68.60
2023-04-28T23:38:12.290Z,68.59
2023-04-28T23:40:38.761Z,68.46
2023-04-28T23:43:05.306Z,68.53
2023-04-28T23:45:31.759Z,68.27
2023-04-28T23:47:58.283Z,68.38
2023-04-28T23:50:24.768Z,68.41
2023-04-28T23:52:51.350Z,68.34
2023-04-28T23:55:17.877Z,68.21
2023-04-28T23:57:44.476Z,68.22
